Time;durP1;ratioP1;P1;durP2;ratioP2;P2;SDS_P1;SDS_P2;PMS_P1;PMS_P2;Temp;Humidity;BMP_temperature;BMP_pressure;BME280_temperature;BME280_humidity;BME280_pressure;Samples;Min_cycle;Max_cycle;Signal;HPM_P1;HPM_P2
2023/03/27 00:01:15;;;;;;;0.60;0.57;;;;;;;7.40;91.36;99519.94;4949681;29;20475;-51
2023/03/27 00:03:42;;;;;;;1.40;1.30;;;;;;;7.31;89.42;99530.78;4949399;28;20462;-50
2023/03/27 00:06:15;;;;;;;0.73;0.43;;;;;;;7.29;89.32;99540.53;4949553;28;20987;-50
2023/03/27 00:08:46;;;;;;;0.43;0.30;;;;;;;7.33;89.08;99526.31;4949699;28;20459;-50
2023/03/27 00:11:14;;;;;;;3.33;0.53;;;;;;;7.20;89.60;99537.25;4949397;28;20558;-51
2023/03/27 00:13:42;;;;;;;1.63;1.00;;;;;;;7.31;88.79;99535.19;4949477;28;20558;-51
2023/03/27 00:16:23;;;;;;;0.90;0.90;;;;;;;7.27;89.17;99554.69;5026552;28;20498;-51
2023/03/27 00:18:51;;;;;;;0.40;0.40;;;;;;;7.20;88.32;99553.97;4943928;28;20935;-50
2023/03/27 00:21:18;;;;;;;0.40;0.40;;;;;;;7.12;87.84;99555.94;4949204;28;20479;-50
2023/03/27 00:23:44;;;;;;;0.83;0.83;;;;;;;7.16;87.04;99556.75;4949533;28;20570;-50
2023/03/27 00:26:11;;;;;;;0.77;0.53;;;;;;;7.20;90.05;99566.31;4949342;28;20455;-51
2023/03/27 00:28:38;;;;;;;2.10;0.77;;;;;;;7.30;88.92;99578.41;4949146;28;20976;-51
2023/03/27 00:31:10;;;;;;;14.73;0.60;;;;;;;7.21;88.13;99587.44;4948817;29;20475;-51
2023/03/27 00:33:36;;;;;;;0.77;0.50;;;;;;;6.90;87.14;99600.56;4949226;28;20500;-51
2023/03/27 00:36:03;;;;;;;0.80;0.50;;;;;;;6.88;85.94;99602.38;4949012;29;20498;-50
2023/03/27 00:38:30;;;;;;;0.70;0.70;;;;;;;6.86;84.94;99611.25;4949625;29;20543;-50
2023/03/27 00:40:56;;;;;;;4.83;0.70;;;;;;;6.85;84.24;99634.13;4948933;28;21010;-51
2023/03/27 00:43:32;;;;;;;0.87;0.40;;;;;;;6.82;83.27;99623.63;4948992;28;20509;-50
2023/03/27 00:46:06;;;;;;;0.60;0.57;;;;;;;6.87;83.59;99634.97;4936166;28;20451;-51
2023/03/27 00:48:36;;;;;;;0.70;0.40;;;;;;;6.69;81.78;99648.59;4937743;28;20463;-50
2023/03/27 00:51:05;;;;;;;5.83;0.93;;;;;;;6.51;82.94;99665.75;4935323;29;20483;-50
2023/03/27 00:53:32;;;;;;;0.40;0.40;;;;;;;6.40;80.78;99678.28;4942721;29;21076;-50
2023/03/27 00:56:02;;;;;;;1.43;0.30;;;;;;;6.28;81.13;99684.69;4948716;28;20496;-51
2023/03/27 00:59:04;;;;;;;0.30;0.20;;;;;;;6.42;79.16;99694.97;4948996;28;20534;-50
2023/03/27 01:01:30;;;;;;;1.27;0.37;;;;;;;6.29;77.60;99685.56;4977667;28;21012;-50
2023/03/27 01:04:01;;;;;;;1.60;0.20;;;;;;;6.22;77.21;99703.31;4948244;29;20898;-50
2023/03/27 01:06:30;;;;;;;0.63;0.63;;;;;;;6.28;79.41;99707.59;4948612;28;20459;-50
2023/03/27 01:08:56;;;;;;;22.47;0.77;;;;;;;6.27;77.68;99711.13;4948379;28;20455;-51
2023/03/27 01:11:56;;;;;;;4.53;0.67;;;;;;;6.38;76.98;99730.25;4948509;28;21025;-51
2023/03/27 01:14:32;;;;;;;9.67;0.63;;;;;;;6.15;78.31;99738.63;4948620;29;20513;-50
2023/03/27 01:17:36;;;;;;;1.47;1.17;;;;;;;6.26;77.36;99738.41;4923415;28;20552;-50
2023/03/27 01:20:21;;;;;;;0.70;0.43;;;;;;;6.16;79.01;99746.50;4946458;28;20455;-51
2023/03/27 01:23:00;;;;;;;0.30;0.20;;;;;;;6.11;79.56;99744.88;4948317;28;20451;-51
2023/03/27 01:25:55;;;;;;;0.30;0.20;;;;;;;6.25;79.34;99750.75;4948861;28;20855;-50
2023/03/27 01:28:59;;;;;;;0.73;0.73;;;;;;;6.03;80.52;99752.03;4924277;29;20459;-51
2023/03/27 01:31:43;;;;;;;0.40;0.40;;;;;;;5.98;79.93;99756.56;4948171;29;20471;-51
2023/03/27 01:34:15;;;;;;;11.87;0.73;;;;;;;5.86;80.59;99762.88;4948344;28;20463;-52
2023/03/27 01:37:13;;;;;;;0.60;0.47;;;;;;;5.89;81.61;99761.09;4948552;28;20505;-51
2023/03/27 01:40:06;;;;;;;2.20;0.80;;;;;;;5.72;82.36;99778.06;4948436;28;20455;-51
2023/03/27 01:42:53;;;;;;;0.33;0.30;;;;;;;5.73;81.44;99779.81;4948191;28;20837;-50
2023/03/27 01:45:27;;;;;;;2.00;0.47;;;;;;;5.65;82.09;99795.78;4935919;28;20456;-50
2023/03/27 01:48:03;;;;;;;3.40;0.67;;;;;;;5.41;82.11;99799.69;4941513;28;20946;-50
2023/03/27 01:50:39;;;;;;;5.03;0.50;;;;;;;5.38;82.14;99797.09;4944143;29;21230;-50
2023/03/27 01:53:12;;;;;;;0.40;0.40;;;;;;;5.22;82.70;99804.38;4941012;28;20497;-50
2023/03/27 01:55:45;;;;;;;0.30;0.30;;;;;;;5.08;83.37;99816.88;4948067;28;20455;-50
2023/03/27 01:58:37;;;;;;;0.40;0.40;;;;;;;5.23;83.06;99828.94;4947058;29;20458;-51
2023/03/27 02:01:07;;;;;;;0.90;0.60;;;;;;;5.03;84.01;99829.22;4926947;29;20482;-50
2023/03/27 02:03:40;;;;;;;0.70;0.67;;;;;;;5.02;82.49;99833.59;4948116;28;20455;-50
2023/03/27 02:06:32;;;;;;;9.40;1.40;;;;;;;5.20;83.91;99826.34;4948183;28;20444;-51
2023/03/27 02:09:12;;;;;;;0.47;0.47;;;;;;;5.29;83.17;99834.13;4948439;28;20509;-51
2023/03/27 02:11:59;;;;;;;4.97;0.63;;;;;;;5.12;83.16;99826.47;4947856;28;20491;-50
2023/03/27 02:14:31;;;;;;;0.50;0.50;;;;;;;5.27;82.96;99843.81;4948220;28;20457;-50
2023/03/27 02:17:02;;;;;;;0.30;0.20;;;;;;;5.12;84.61;99854.56;4948264;28;20586;-50
2023/03/27 02:19:33;;;;;;;0.30;0.20;;;;;;;5.24;83.30;99857.91;4935857;28;20459;-51
2023/03/27 02:22:00;;;;;;;0.30;0.20;;;;;;;4.99;82.00;99857.34;4927823;29;20479;-50
2023/03/27 02:24:27;;;;;;;0.30;0.20;;;;;;;5.17;82.27;99863.25;4951138;28;20458;-50
2023/03/27 02:27:00;;;;;;;0.43;0.40;;;;;;;5.00;80.61;99872.28;4951517;28;20455;-50
2023/03/27 02:30:09;;;;;;;2.93;0.87;;;;;;;5.17;81.20;99871.16;4951027;28;20459;-50
2023/03/27 02:32:38;;;;;;;0.30;0.20;;;;;;;5.13;81.22;99880.00;4951087;28;20951;-50
2023/03/27 02:35:21;;;;;;;0.50;0.50;;;;;;;5.01;81.54;99884.53;4951281;28;20542;-51
2023/03/27 02:38:03;;;;;;;4.30;1.67;;;;;;;4.91;82.13;99882.91;4951026;28;20501;-50
2023/03/27 02:40:44;;;;;;;0.70;0.70;;;;;;;5.05;81.52;99880.09;4951121;28;20481;-51
2023/03/27 02:43:32;;;;;;;0.37;0.37;;;;;;;4.85;81.41;99888.25;4929503;28;20493;-50
2023/03/27 02:46:11;;;;;;;0.30;0.20;;;;;;;4.98;81.15;99894.25;4937941;28;20967;-51
2023/03/27 02:48:53;;;;;;;0.30;0.20;;;;;;;5.00;81.30;99906.50;4938244;28;20452;-52
2023/03/27 02:51:27;;;;;;;2.10;1.17;;;;;;;4.65;82.11;99913.91;4947834;28;20484;-50
2023/03/27 02:54:12;;;;;;;0.30;0.20;;;;;;;4.81;81.68;99919.91;4948194;29;21023;-50
2023/03/27 02:56:47;;;;;;;0.30;0.20;;;;;;;4.85;82.16;99927.75;4951221;28;20540;-50
2023/03/27 02:59:21;;;;;;;0.30;0.30;;;;;;;4.77;82.65;99937.47;4927376;29;20839;-51
2023/03/27 03:01:48;;;;;;;0.30;0.20;;;;;;;5.00;82.38;99951.28;4952729;28;20574;-50
2023/03/27 03:04:28;;;;;;;5.40;0.67;;;;;;;4.91;80.90;99955.75;4951726;28;20455;-51
2023/03/27 03:06:55;;;;;;;6.90;0.73;;;;;;;4.87;82.13;99957.56;4950676;28;20454;-51
2023/03/27 03:09:23;;;;;;;0.20;0.20;;;;;;;4.93;82.10;99953.97;4950486;29;20904;-50
2023/03/27 03:11:52;;;;;;;2.87;2.00;;;;;;;4.87;82.24;99957.56;4950342;28;20487;-50
2023/03/27 03:14:23;;;;;;;1.13;1.13;;;;;;;4.69;82.98;99968.31;4950617;28;20470;-51
2023/03/27 03:16:50;;;;;;;2.67;0.30;;;;;;;4.83;82.55;99966.41;4950443;28;20499;-50
2023/03/27 03:19:17;;;;;;;0.30;0.20;;;;;;;4.92;82.50;99971.53;4943779;28;20459;-50
2023/03/27 03:21:45;;;;;;;0.40;0.30;;;;;;;4.95;82.04;99983.84;4937380;28;20533;-50
2023/03/27 03:24:12;;;;;;;0.40;0.30;;;;;;;4.89;82.74;99986.53;4950382;28;20451;-50
2023/03/27 03:26:38;;;;;;;0.30;0.20;;;;;;;4.79;83.27;99996.25;4950449;28;20884;-50
2023/03/27 03:29:05;;;;;;;3.60;1.80;;;;;;;4.70;83.83;99999.00;4950322;28;20459;-51
2023/03/27 03:31:43;;;;;;;6.97;0.67;;;;;;;4.79;82.14;100006.78;4949639;28;20479;-50
2023/03/27 03:34:21;;;;;;;0.30;0.20;;;;;;;4.93;82.58;100019.81;4949886;28;20451;-51
2023/03/27 03:36:48;;;;;;;1.60;1.60;;;;;;;4.84;83.10;100026.06;4950299;28;20499;-53
2023/03/27 03:39:16;;;;;;;4.23;0.57;;;;;;;4.82;83.40;100032.25;4950132;28;20470;-50
2023/03/27 03:41:42;;;;;;;0.30;0.20;;;;;;;5.14;82.85;100029.28;4950131;28;20532;-51
2023/03/27 03:44:09;;;;;;;0.30;0.30;;;;;;;4.85;82.70;100042.75;4946689;28;20977;-51
2023/03/27 03:46:35;;;;;;;0.30;0.10;;;;;;;4.64;82.36;100049.06;4940594;29;21010;-50
2023/03/27 03:49:03;;;;;;;0.30;0.20;;;;;;;4.46;84.71;100055.34;4929339;28;20499;-50
2023/03/27 03:51:31;;;;;;;0.47;0.30;;;;;;;4.54;83.91;100060.56;4932643;29;20918;-50
2023/03/27 03:53:58;;;;;;;0.30;0.17;;;;;;;4.65;82.80;100058.69;4947366;28;20972;-50
2023/03/27 03:56:26;;;;;;;2.73;0.60;;;;;;;4.35;85.13;100065.94;4949910;28;20466;-50
2023/03/27 03:58:53;;;;;;;0.53;0.53;;;;;;;4.51;84.29;100069.34;4950020;28;20970;-50
2023/03/27 04:01:20;;;;;;;0.30;0.20;;;;;;;4.58;84.93;100075.44;4949656;29;20498;-50
2023/03/27 04:03:47;;;;;;;3.50;1.40;;;;;;;4.56;84.60;100087.75;4949400;28;20463;-51
2023/03/27 04:06:16;;;;;;;0.47;0.33;;;;;;;4.51;84.69;100085.13;4949880;28;20462;-50
2023/03/27 04:08:46;;;;;;;0.30;0.23;;;;;;;4.54;83.76;100092.16;4949455;28;20478;-50
2023/03/27 04:11:12;;;;;;;0.33;0.30;;;;;;;4.46;84.43;100098.31;4949606;29;20505;-50
2023/03/27 04:13:38;;;;;;;0.30;0.30;;;;;;;4.25;84.50;100098.47;4949516;29;20486;-51
2023/03/27 04:16:06;;;;;;;0.40;0.20;;;;;;;4.51;85.25;100100.91;4949351;28;20463;-51
2023/03/27 04:18:33;;;;;;;7.80;0.80;;;;;;;4.34;85.29;100115.94;4942984;28;20495;-50
2023/03/27 04:21:01;;;;;;;0.30;0.20;;;;;;;4.44;84.27;100108.00;4949527;28;20482;-50
2023/03/27 04:23:29;;;;;;;0.77;0.77;;;;;;;4.34;84.43;100119.44;4949417;29;20455;-50
2023/03/27 04:25:59;;;;;;;3.50;0.30;;;;;;;4.39;85.11;100128.22;4949385;28;20470;-51
2023/03/27 04:28:29;;;;;;;0.30;0.23;;;;;;;4.34;84.70;100132.59;4925023;29;20452;-50
2023/03/27 04:30:56;;;;;;;0.30;0.23;;;;;;;4.28;84.65;100142.31;4949441;28;20533;-51
2023/03/27 04:33:24;;;;;;;0.20;0.10;;;;;;;4.42;84.94;100149.25;4949310;28;20494;-51
2023/03/27 04:35:56;;;;;;;0.33;0.23;;;;;;;4.46;84.63;100160.63;4949629;28;20455;-50
2023/03/27 04:38:37;;;;;;;0.30;0.30;;;;;;;4.53;84.55;100158.84;4949357;28;20502;-50
2023/03/27 04:41:04;;;;;;;0.20;0.20;;;;;;;4.45;84.52;100167.63;4949123;28;20475;-51
2023/03/27 04:43:35;;;;;;;2.00;0.40;;;;;;;4.41;83.52;100167.66;4948531;28;20491;-51
2023/03/27 04:46:04;;;;;;;0.40;0.30;;;;;;;4.39;84.75;100178.22;4936459;28;20542;-50
2023/03/27 04:48:31;;;;;;;14.07;0.50;;;;;;;4.51;83.93;100182.50;4937756;28;20452;-50
2023/03/27 04:50:58;;;;;;;1.03;0.40;;;;;;;4.50;84.51;100187.78;4948522;29;20480;-51
2023/03/27 04:53:28;;;;;;;0.30;0.20;;;;;;;4.42;84.02;100187.84;4942389;29;20542;-50
2023/03/27 04:55:56;;;;;;;28.23;2.73;;;;;;;4.50;83.68;100188.66;4949019;28;20452;-51
2023/03/27 04:58:24;;;;;;;5.13;0.40;;;;;;;4.45;83.92;100198.34;4948841;28;20495;-50
2023/03/27 05:00:54;;;;;;;0.20;0.10;;;;;;;4.50;83.76;100207.06;4949022;28;21042;-50
2023/03/27 05:03:22;;;;;;;0.70;0.43;;;;;;;4.39;83.45;100211.53;4948775;28;20485;-50
2023/03/27 05:05:49;;;;;;;0.47;0.47;;;;;;;4.38;83.53;100215.03;4948817;28;20541;-51
2023/03/27 05:08:17;;;;;;;0.30;0.20;;;;;;;4.53;83.05;100222.00;4947425;28;20456;-50
2023/03/27 05:10:45;;;;;;;0.50;0.37;;;;;;;4.43;82.84;100223.78;4958919;22;20562;-50
2023/03/27 05:13:12;;;;;;;3.37;0.80;;;;;;;4.32;83.85;100222.97;4925516;29;20488;-50
2023/03/27 05:15:38;;;;;;;3.27;2.17;;;;;;;4.25;83.86;100235.28;4929568;28;20456;-50
2023/03/27 05:18:05;;;;;;;0.40;0.40;;;;;;;4.29;84.76;100234.38;4923476;28;20505;-49
2023/03/27 05:20:33;;;;;;;20.27;1.30;;;;;;;4.30;84.56;100246.66;4926820;28;20460;-49
2023/03/27 05:22:59;;;;;;;0.30;0.20;;;;;;;4.20;84.20;100242.28;4910395;29;20581;-50
2023/03/27 05:25:27;;;;;;;1.03;0.67;;;;;;;4.29;85.28;100247.53;4910367;29;20457;-49
2023/03/27 05:27:54;;;;;;;4.43;0.60;;;;;;;4.41;85.39;100252.75;4910188;29;20461;-50
2023/03/27 05:30:22;;;;;;;0.30;0.30;;;;;;;4.41;84.79;100258.00;4910263;29;20461;-51
2023/03/27 05:32:50;;;;;;;1.53;1.50;;;;;;;4.45;84.09;100272.03;4910195;29;20464;-51
2023/03/27 05:35:19;;;;;;;0.47;0.40;;;;;;;4.57;83.63;100276.38;4909772;29;21276;-52
2023/03/27 05:37:47;;;;;;;0.30;0.20;;;;;;;4.44;83.95;100281.69;4910135;29;20925;-49
2023/03/27 05:40:16;;;;;;;0.47;0.30;;;;;;;4.54;83.87;100274.63;4910040;29;20961;-50
2023/03/27 05:42:44;;;;;;;0.30;0.20;;;;;;;4.52;83.38;100289.53;4909898;29;20865;-50
2023/03/27 05:45:12;;;;;;;0.30;0.20;;;;;;;4.66;83.10;100289.47;4899017;28;20454;-50
2023/03/27 05:47:47;;;;;;;1.00;1.00;;;;;;;4.44;83.42;100297.47;4903852;29;20490;-49
2023/03/27 05:50:15;;;;;;;0.57;0.57;;;;;;;4.49;82.67;100294.81;4903746;29;20519;-52
2023/03/27 05:52:41;;;;;;;0.20;0.20;;;;;;;4.71;82.80;100300.88;4902915;28;20469;-50
2023/03/27 05:55:09;;;;;;;0.40;0.30;;;;;;;4.79;83.21;100304.31;4913252;29;20465;-50
2023/03/27 05:57:38;;;;;;;0.80;0.63;;;;;;;4.88;83.07;100324.47;4913654;29;20496;-50
2023/03/27 06:00:12;;;;;;;0.30;0.20;;;;;;;4.82;83.40;100324.53;4913472;29;20461;-50
2023/03/27 06:02:43;;;;;;;0.40;0.37;;;;;;;5.06;83.45;100327.88;4913324;29;20476;-53
2023/03/27 06:05:15;;;;;;;0.40;0.30;;;;;;;4.97;82.84;100337.59;4912929;29;20453;-51
2023/03/27 06:07:42;;;;;;;0.30;0.20;;;;;;;5.04;83.25;100334.91;4913255;29;20511;-51
2023/03/27 06:10:11;;;;;;;0.30;0.20;;;;;;;5.31;83.14;100340.91;4913159;29;20457;-51
2023/03/27 06:12:40;;;;;;;0.30;0.20;;;;;;;5.25;82.29;100348.88;4912592;28;20484;-49
2023/03/27 06:15:08;;;;;;;1.07;1.07;;;;;;;5.09;82.92;100355.13;4912711;29;20460;-54
2023/03/27 06:17:37;;;;;;;3.00;0.53;;;;;;;5.29;83.00;100358.50;4908741;29;20509;-51
2023/03/27 06:20:14;;;;;;;7.77;0.70;;;;;;;5.41;82.48;100360.19;4912035;29;20831;-50
2023/03/27 06:22:47;;;;;;;1.20;0.70;;;;;;;5.52;82.43;100367.13;4912895;28;20489;-52
2023/03/27 06:25:14;;;;;;;0.30;0.20;;;;;;;5.47;82.50;100375.94;4912620;28;20464;-49
2023/03/27 06:27:42;;;;;;;0.60;0.50;;;;;;;5.39;83.51;100373.38;4912854;28;20507;-50
2023/03/27 06:30:10;;;;;;;0.30;0.20;;;;;;;5.36;83.57;100376.03;4912858;29;20480;-50
2023/03/27 06:32:41;;;;;;;1.50;0.40;;;;;;;5.57;83.15;100383.78;4912454;28;20477;-51
2023/03/27 06:35:09;;;;;;;0.50;0.40;;;;;;;6.05;81.84;100384.34;4912637;29;20500;-52
2023/03/27 06:37:35;;;;;;;6.30;0.47;;;;;;;5.79;82.09;100389.78;4912400;29;20524;-49
2023/03/27 06:40:08;;;;;;;5.77;1.10;;;;;;;5.76;81.22;100397.75;4912618;29;20939;-50
2023/03/27 06:42:35;;;;;;;1.47;1.23;;;;;;;5.94;81.76;100397.63;4912621;29;20477;-51
2023/03/27 06:45:03;;;;;;;2.10;0.70;;;;;;;5.77;81.51;100404.75;4902602;28;20959;-50
2023/03/27 06:47:30;;;;;;;7.13;0.77;;;;;;;5.97;83.08;100409.03;4906958;29;20892;-50
2023/03/27 06:50:00;;;;;;;0.40;0.40;;;;;;;6.11;81.38;100410.66;4904243;29;20457;-52
2023/03/27 06:52:26;;;;;;;1.80;1.70;;;;;;;5.92;81.42;100414.34;4904852;28;21036;-51
2023/03/27 06:54:52;;;;;;;1.70;0.70;;;;;;;6.00;82.75;100419.56;4912549;29;20461;-52
2023/03/27 06:57:19;;;;;;;0.30;0.20;;;;;;;6.37;82.23;100417.47;4912518;29;20559;-51
2023/03/27 06:59:46;;;;;;;0.50;0.37;;;;;;;6.19;82.02;100429.97;4912377;29;20943;-50
2023/03/27 07:02:12;;;;;;;1.43;1.00;;;;;;;6.38;81.14;100432.44;4912231;28;20483;-53
2023/03/27 07:04:39;;;;;;;1.50;0.87;;;;;;;6.29;80.91;100437.78;4911714;28;20457;-51
2023/03/27 07:07:07;;;;;;;0.90;0.90;;;;;;;6.14;82.06;100447.56;4911845;28;20464;-52
2023/03/27 07:09:33;;;;;;;1.70;0.70;;;;;;;6.11;82.29;100452.88;4912805;29;20890;-52
2023/03/27 07:12:01;;;;;;;0.20;0.20;;;;;;;6.27;83.10;100453.63;4911860;28;20575;-52
2023/03/27 07:14:28;;;;;;;4.03;0.63;;;;;;;6.36;81.13;100461.50;4912331;29;20816;-53
2023/03/27 07:16:54;;;;;;;3.50;1.80;;;;;;;6.07;81.88;100466.13;4912221;28;20468;-52
2023/03/27 07:19:21;;;;;;;4.57;0.50;;;;;;;6.15;82.58;100467.81;4904937;29;21072;-51
2023/03/27 07:21:47;;;;;;;6.00;2.10;;;;;;;6.45;81.05;100474.63;4912029;28;20484;-52
2023/03/27 07:24:13;;;;;;;0.50;0.30;;;;;;;6.35;81.15;100482.63;4912175;29;20457;-51
2023/03/27 07:26:40;;;;;;;0.60;0.60;;;;;;;6.43;80.84;100478.13;4911767;28;20487;-52
2023/03/27 07:29:09;;;;;;;0.80;0.63;;;;;;;6.58;81.81;100492.97;4911961;29;20847;-51
2023/03/27 07:31:36;;;;;;;0.60;0.60;;;;;;;6.51;81.34;100484.22;4911741;29;21011;-52
2023/03/27 07:34:08;;;;;;;0.40;0.40;;;;;;;6.56;80.11;100490.34;4911639;29;20469;-51
2023/03/27 07:36:35;;;;;;;0.50;0.50;;;;;;;6.64;80.23;100495.56;4912329;29;20515;-51
2023/03/27 07:39:01;;;;;;;4.10;0.93;;;;;;;6.52;79.73;100494.78;4911907;29;20505;-51
2023/03/27 07:41:29;;;;;;;4.40;1.33;;;;;;;6.63;79.58;100501.75;4911703;29;20492;-51
2023/03/27 07:43:56;;;;;;;0.50;0.50;;;;;;;6.56;80.28;100505.31;4910350;28;20457;-51
2023/03/27 07:46:22;;;;;;;11.73;0.50;;;;;;;6.50;80.09;100503.59;4900946;29;20464;-51
2023/03/27 07:48:50;;;;;;;0.30;0.20;;;;;;;6.44;79.74;100507.19;4899341;29;20454;-52
2023/03/27 07:51:16;;;;;;;0.50;0.50;;;;;;;6.30;80.64;100506.41;4909048;29;20497;-52
2023/03/27 07:53:43;;;;;;;11.83;0.87;;;;;;;6.40;80.86;100516.00;4907028;29;20461;-52
2023/03/27 07:56:09;;;;;;;0.40;0.37;;;;;;;6.38;80.67;100516.91;4911608;29;20507;-52
2023/03/27 07:58:36;;;;;;;0.30;0.20;;;;;;;6.21;80.27;100524.97;4911344;29;20496;-50
2023/03/27 08:01:03;;;;;;;0.37;0.37;;;;;;;6.32;81.44;100520.47;4911229;28;20500;-52
2023/03/27 08:03:29;;;;;;;2.80;0.90;;;;;;;6.50;81.59;100527.38;4911225;29;20962;-52
2023/03/27 08:05:59;;;;;;;0.93;0.37;;;;;;;6.71;81.11;100523.66;4912076;29;20456;-52
2023/03/27 08:08:27;;;;;;;0.40;0.40;;;;;;;6.60;80.18;100517.63;4911751;29;20457;-52
2023/03/27 08:10:54;;;;;;;0.80;0.37;;;;;;;6.97;80.56;100526.06;4911246;28;20497;-53
2023/03/27 08:13:20;;;;;;;23.60;1.23;;;;;;;6.89;78.83;100526.16;4911028;28;20453;-52
2023/03/27 08:15:47;;;;;;;2.00;0.90;;;;;;;7.05;78.06;100525.09;4911312;29;20465;-52
2023/03/27 08:18:13;;;;;;;0.40;0.40;;;;;;;7.19;77.87;100532.00;4903440;29;20497;-52
2023/03/27 08:20:41;;;;;;;0.30;0.20;;;;;;;7.12;76.09;100536.47;4911041;28;20920;-51
2023/03/27 08:23:07;;;;;;;6.83;0.57;;;;;;;7.30;77.69;100533.63;4911105;29;20461;-52
2023/03/27 08:25:34;;;;;;;7.30;1.67;;;;;;;7.48;77.27;100540.47;4911002;29;20458;-52
2023/03/27 08:28:01;;;;;;;0.30;0.20;;;;;;;7.26;77.39;100545.13;4911385;29;20559;-54
2023/03/27 08:30:28;;;;;;;1.37;0.53;;;;;;;7.30;77.68;100557.44;4911448;28;20460;-51
2023/03/27 08:32:55;;;;;;;0.53;0.50;;;;;;;7.26;75.87;100560.97;4910928;28;20829;-51
2023/03/27 08:35:22;;;;;;;0.40;0.27;;;;;;;7.11;75.27;100563.78;4910899;29;20457;-52
2023/03/27 08:37:48;;;;;;;0.30;0.20;;;;;;;6.80;77.53;100563.22;4910742;29;20542;-51
2023/03/27 08:40:24;;;;;;;0.30;0.20;;;;;;;6.66;78.03;100560.69;4910787;28;20457;-52
2023/03/27 08:42:55;;;;;;;2.30;0.27;;;;;;;6.83;78.43;100564.03;4911191;29;20456;-51
2023/03/27 08:45:30;;;;;;;0.30;0.10;;;;;;;6.76;77.07;100570.28;4898356;28;20797;-51
2023/03/27 08:48:04;;;;;;;5.20;1.20;;;;;;;6.91;78.55;100568.41;4881119;29;20975;-51
2023/03/27 08:50:36;;;;;;;0.30;0.20;;;;;;;6.84;78.58;100575.50;4906622;29;20457;-50
2023/03/27 08:53:10;;;;;;;0.80;0.53;;;;;;;7.06;77.50;100568.25;4903555;29;20511;-55
2023/03/27 08:55:40;;;;;;;20.33;0.90;;;;;;;6.93;78.77;100566.63;4910854;29;20453;-51
2023/03/27 08:58:18;;;;;;;8.33;0.20;;;;;;;7.07;77.69;100562.94;4910889;29;20493;-51
2023/03/27 09:00:52;;;;;;;0.50;0.30;;;;;;;7.72;76.37;100571.03;4904879;29;20489;-51
2023/03/27 09:03:39;;;;;;;5.83;0.53;;;;;;;7.70;74.65;100584.31;4905473;29;20458;-53
2023/03/27 09:06:17;;;;;;;0.90;0.90;;;;;;;7.81;73.93;100584.19;4910532;28;21294;-51
2023/03/27 09:08:43;;;;;;;0.90;0.70;;;;;;;7.83;74.35;100585.03;4910654;29;20449;-52
2023/03/27 09:11:38;;;;;;;15.67;1.17;;;;;;;8.05;73.31;100585.59;4910417;29;20495;-51
2023/03/27 09:14:18;;;;;;;14.47;0.90;;;;;;;7.77;72.16;100590.38;4890862;29;20457;-53
2023/03/27 09:16:48;;;;;;;0.63;0.43;;;;;;;7.71;71.32;100578.09;4910293;29;20981;-51
2023/03/27 09:19:32;;;;;;;2.60;0.63;;;;;;;7.89;72.34;100579.63;4904996;28;20496;-52
2023/03/27 09:22:06;;;;;;;1.47;0.80;;;;;;;7.82;74.94;100579.75;4887733;29;20477;-51
2023/03/27 09:24:42;;;;;;;22.17;1.50;;;;;;;7.96;69.76;100577.81;4910123;28;20453;-51
2023/03/27 09:27:18;;;;;;;0.30;0.20;;;;;;;8.19;68.30;100577.47;4910625;29;20468;-52
2023/03/27 09:30:13;;;;;;;2.30;0.90;;;;;;;8.25;71.96;100590.63;4909928;29;20453;-53
2023/03/27 09:32:41;;;;;;;0.30;0.20;;;;;;;8.03;72.70;100582.09;4903492;29;21002;-51
2023/03/27 09:35:13;;;;;;;2.13;0.83;;;;;;;8.30;76.15;100589.66;4910633;29;20950;-50
2023/03/27 09:37:41;;;;;;;3.03;0.50;;;;;;;8.47;78.20;100588.56;4910331;29;20465;-51
2023/03/27 09:40:20;;;;;;;3.33;0.90;;;;;;;8.35;79.59;100594.03;4910218;28;20500;-51
2023/03/27 09:42:48;;;;;;;2.40;1.03;;;;;;;8.17;76.37;100587.22;4910050;29;20809;-51
2023/03/27 09:45:15;;;;;;;1.43;1.33;;;;;;;8.17;73.92;100601.31;4898378;28;20822;-48
2023/03/27 09:47:53;;;;;;;8.03;0.60;;;;;;;8.02;72.73;100602.41;4904495;29;20464;-50
2023/03/27 09:50:29;;;;;;;0.70;0.50;;;;;;;7.71;76.20;100620.44;4893505;29;20462;-51
2023/03/27 09:53:18;;;;;;;0.40;0.30;;;;;;;7.32;79.80;100632.31;4903240;29;20461;-50
2023/03/27 09:56:11;;;;;;;0.40;0.23;;;;;;;6.78;85.09;100639.84;4909731;29;20495;-51
2023/03/27 09:58:42;;;;;;;0.40;0.30;;;;;;;6.30;89.96;100646.31;4909971;29;20521;-53
2023/03/27 10:01:36;;;;;;;0.70;0.60;;;;;;;6.10;94.24;100648.19;4910147;29;20982;-50
2023/03/27 10:04:16;;;;;;;0.40;0.30;;;;;;;5.97;95.09;100649.13;4886201;28;20515;-51
2023/03/27 10:06:48;;;;;;;3.60;0.30;;;;;;;6.29;96.45;100649.81;4909783;29;20481;-51
2023/03/27 10:09:22;;;;;;;4.43;0.53;;;;;;;6.74;94.87;100645.16;4909917;29;20457;-51
2023/03/27 10:11:50;;;;;;;0.30;0.23;;;;;;;6.95;93.92;100649.38;4909668;29;20935;-52
2023/03/27 10:14:20;;;;;;;0.30;0.20;;;;;;;6.95;91.81;100652.03;4909822;29;20461;-51
2023/03/27 10:16:46;;;;;;;0.30;0.23;;;;;;;6.16;95.25;100654.28;4909835;29;20515;-51
2023/03/27 10:19:35;;;;;;;0.30;0.20;;;;;;;6.19;95.51;100646.38;4904520;29;20891;-53
2023/03/27 10:22:29;;;;;;;21.13;1.20;;;;;;;5.92;94.26;100649.13;4888208;29;21053;-50
2023/03/27 10:25:12;;;;;;;0.30;0.20;;;;;;;5.60;94.77;100654.47;4909554;29;20453;-50
2023/03/27 10:27:42;;;;;;;0.30;0.20;;;;;;;6.18;93.64;100649.03;4909694;29;20461;-51
2023/03/27 10:30:36;;;;;;;2.00;0.40;;;;;;;6.73;92.87;100643.41;4909948;29;20477;-51
2023/03/27 10:33:03;;;;;;;0.30;0.20;;;;;;;6.75;89.81;100644.28;4910903;28;20469;-50
2023/03/27 10:35:36;;;;;;;0.30;0.30;;;;;;;6.66;89.00;100647.84;4909273;29;20883;-50
2023/03/27 10:38:14;;;;;;;2.10;2.00;;;;;;;7.08;87.00;100638.69;4885734;29;20461;-50
2023/03/27 10:40:43;;;;;;;2.97;0.50;;;;;;;7.16;85.39;100640.41;4910253;28;20477;-51
2023/03/27 10:43:15;;;;;;;0.30;0.20;;;;;;;7.73;84.27;100631.00;4912655;28;20985;-50
2023/03/27 10:45:48;;;;;;;1.23;1.23;;;;;;;7.17;84.27;100637.75;4899912;28;20460;-51
2023/03/27 10:48:37;;;;;;;0.80;0.70;;;;;;;7.57;82.78;100630.31;4903432;28;20819;-51
2023/03/27 10:51:12;;;;;;;0.37;0.37;;;;;;;7.60;82.01;100624.97;4886865;29;20488;-53
2023/03/27 10:53:47;;;;;;;0.40;0.40;;;;;;;7.95;80.71;100624.56;4907432;29;20459;-51
2023/03/27 10:56:17;;;;;;;4.10;1.60;;;;;;;8.28;80.89;100625.00;4912389;29;20989;-51
2023/03/27 10:58:49;;;;;;;0.70;0.70;;;;;;;8.53;78.17;100625.56;4912526;29;20500;-52
2023/03/27 11:01:25;;;;;;;1.43;0.70;;;;;;;8.69;78.65;100620.91;4912494;29;20491;-52
2023/03/27 11:04:00;;;;;;;1.87;0.50;;;;;;;8.25;78.78;100627.72;4912409;29;20534;-51
2023/03/27 11:06:32;;;;;;;0.97;0.97;;;;;;;8.54;81.20;100633.50;4912117;28;20487;-52
2023/03/27 11:09:08;;;;;;;0.60;0.60;;;;;;;8.56;83.30;100641.41;4888986;29;20445;-51
2023/03/27 11:11:39;;;;;;;1.53;1.43;;;;;;;8.43;87.49;100643.38;4912538;29;20488;-54
2023/03/27 11:14:16;;;;;;;0.47;0.40;;;;;;;8.20;85.65;100643.63;4912459;29;20562;-54
2023/03/27 11:16:55;;;;;;;0.60;0.53;;;;;;;8.14;86.33;100646.38;4912004;29;20460;-53
2023/03/27 11:19:52;;;;;;;0.47;0.37;;;;;;;8.26;89.05;100642.69;4906250;28;20508;-54
2023/03/27 11:22:48;;;;;;;0.60;0.60;;;;;;;7.96;85.86;100652.78;4905357;28;20493;-54
2023/03/27 11:25:28;;;;;;;0.77;0.77;;;;;;;7.58;84.73;100660.28;4888364;29;20492;-54
2023/03/27 11:28:09;;;;;;;0.40;0.27;;;;;;;7.55;85.32;100665.59;4912091;29;20460;-54
2023/03/27 11:30:43;;;;;;;1.77;0.37;;;;;;;7.13;86.35;100662.47;4911855;29;20453;-53
2023/03/27 11:33:32;;;;;;;0.53;0.27;;;;;;;7.61;86.94;100658.47;4911832;28;20488;-54
2023/03/27 11:36:36;;;;;;;2.30;0.53;;;;;;;7.74;87.49;100664.50;4911738;28;20520;-51
2023/03/27 11:39:14;;;;;;;0.50;0.37;;;;;;;7.76;84.92;100660.06;4911548;29;20536;-52
2023/03/27 11:41:46;;;;;;;0.60;0.57;;;;;;;7.99;84.84;100651.88;4911501;29;20486;-52
2023/03/27 11:44:12;;;;;;;0.37;0.20;;;;;;;8.32;86.37;100651.44;4908137;28;20453;-52
2023/03/27 11:46:48;;;;;;;0.40;0.40;;;;;;;8.02;82.74;100646.53;4903391;28;20460;-51
2023/03/27 11:49:14;;;;;;;4.43;0.60;;;;;;;8.45;83.43;100652.16;4899184;28;20962;-51
2023/03/27 11:51:52;;;;;;;2.00;0.70;;;;;;;8.66;82.76;100652.78;4905641;29;20513;-52
2023/03/27 11:54:47;;;;;;;0.40;0.23;;;;;;;8.71;79.54;100656.22;4899087;29;20548;-51
2023/03/27 11:57:23;;;;;;;0.47;0.47;;;;;;;9.07;77.31;100647.69;4911752;29;20453;-52
2023/03/27 12:00:17;;;;;;;0.50;0.30;;;;;;;9.05;76.68;100653.91;4911679;29;20512;-54
2023/03/27 12:03:06;;;;;;;1.33;0.87;;;;;;;9.28;77.04;100643.78;4890465;28;20461;-52